Time;durP1;ratioP1;P1;durP2;ratioP2;P2;SDS_P1;SDS_P2;PMS_P1;PMS_P2;Temp;Humidity;BMP_temperature;BMP_pressure;BME280_temperature;BME280_humidity;BME280_pressure;Samples;Min_cycle;Max_cycle;Signal;HPM_P1;HPM_P2
2023/09/14 00:00:22;;;;;;;5.25;2.35;;;10.10;99.90;;;;;;5042098;28;20103;-43
2023/09/14 00:02:48;;;;;;;4.80;2.33;;;10.10;99.90;;;;;;5042018;28;20161;-41
2023/09/14 00:05:14;;;;;;;7.95;2.28;;;10.00;99.90;;;;;;5024635;28;20364;-42
2023/09/14 00:07:40;;;;;;;4.20;2.15;;;10.00;99.90;;;;;;5042175;28;20492;-43
2023/09/14 00:10:06;;;;;;;3.55;2.10;;;10.00;99.90;;;;;;5041812;28;20091;-44
2023/09/14 00:12:32;;;;;;;6.40;2.17;;;10.00;99.90;;;;;;5042230;28;20070;-43
2023/09/14 00:14:58;;;;;;;4.88;2.28;;;10.00;99.90;;;;;;5042783;28;20044;-42
2023/09/14 00:17:23;;;;;;;4.43;2.30;;;10.00;99.90;;;;;;5006693;28;20037;-43
2023/09/14 00:19:49;;;;;;;5.40;3.00;;;10.00;99.90;;;;;;5023896;28;20124;-42
2023/09/14 00:22:14;;;;;;;6.00;2.30;;;10.00;99.90;;;;;;5023945;28;20043;-41
2023/09/14 00:24:40;;;;;;;4.88;2.42;;;10.00;99.90;;;;;;5042639;28;20041;-42
2023/09/14 00:27:05;;;;;;;5.22;2.50;;;10.00;99.90;;;;;;5023774;28;20045;-42
2023/09/14 00:29:31;;;;;;;3.78;2.35;;;10.00;99.90;;;;;;5042176;28;20105;-42
2023/09/14 00:31:56;;;;;;;3.75;2.00;;;10.00;99.90;;;;;;5042573;28;20453;-42
2023/09/14 00:34:22;;;;;;;5.28;2.28;;;10.00;99.90;;;;;;5030412;28;20052;-42
2023/09/14 00:36:47;;;;;;;4.57;2.47;;;10.00;99.90;;;;;;5042185;28;20041;-44
2023/09/14 00:39:13;;;;;;;5.18;2.65;;;10.00;99.90;;;;;;5041871;28;20155;-42
2023/09/14 00:41:40;;;;;;;5.00;2.50;;;9.90;99.90;;;;;;5042409;28;20083;-42
2023/09/14 00:44:06;;;;;;;5.47;2.50;;;10.00;99.90;;;;;;5042021;28;20402;-41
2023/09/14 00:46:32;;;;;;;3.28;2.40;;;10.00;99.90;;;;;;5005469;28;20053;-42
2023/09/14 00:48:58;;;;;;;7.38;2.53;;;10.00;99.90;;;;;;5023068;28;20053;-42
2023/09/14 00:51:27;;;;;;;3.55;2.40;;;10.00;99.90;;;;;;5042099;28;20044;-43
2023/09/14 00:53:54;;;;;;;4.63;2.78;;;9.90;99.90;;;;;;5042366;28;20412;-44
2023/09/14 00:56:20;;;;;;;4.75;2.90;;;9.80;99.90;;;;;;5024217;28;20049;-41
2023/09/14 00:58:47;;;;;;;5.15;1.98;;;9.80;99.90;;;;;;5023139;28;20064;-43
2023/09/14 01:01:14;;;;;;;3.97;2.35;;;9.80;99.90;;;;;;5023304;28;20037;-43
2023/09/14 01:03:40;;;;;;;2.38;1.67;;;9.80;99.90;;;;;;5041743;28;20390;-42
2023/09/14 01:06:06;;;;;;;3.15;1.20;;;9.70;99.90;;;;;;5042106;28;20083;-42
2023/09/14 01:08:32;;;;;;;2.60;1.60;;;9.70;99.90;;;;;;5022978;28;20156;-44
2023/09/14 01:10:58;;;;;;;6.15;1.70;;;9.70;99.90;;;;;;5041587;28;20109;-43
2023/09/14 01:13:49;;;;;;;3.58;2.30;;;9.60;99.90;;;;;;5041670;28;20447;-42
2023/09/14 01:16:31;;;;;;;4.85;2.00;;;9.60;99.90;;;;;;5022367;28;20037;-42
2023/09/14 01:19:32;;;;;;;2.58;1.90;;;9.60;99.90;;;;;;5034949;28;20041;-43
2023/09/14 01:22:16;;;;;;;3.08;1.90;;;9.60;99.90;;;;;;5017113;28;20496;-42
2023/09/14 01:25:09;;;;;;;6.00;2.10;;;9.50;99.90;;;;;;5003039;28;20048;-41
2023/09/14 01:27:35;;;;;;;4.00;2.58;;;9.50;99.90;;;;;;5007485;28;20051;-42
2023/09/14 01:30:02;;;;;;;5.07;2.20;;;9.50;99.90;;;;;;5010755;28;20072;-41
2023/09/14 01:32:28;;;;;;;6.15;2.25;;;9.50;99.90;;;;;;5045113;28;20491;-42
2023/09/14 01:34:54;;;;;;;6.88;2.75;;;9.50;99.90;;;;;;5045447;28;20033;-42
2023/09/14 01:37:21;;;;;;;3.70;2.17;;;9.50;99.90;;;;;;5026666;28;20431;-43
2023/09/14 01:39:47;;;;;;;6.90;2.80;;;9.50;99.90;;;;;;5044949;28;20049;-41
2023/09/14 01:42:13;;;;;;;6.47;2.50;;;9.50;99.90;;;;;;5044997;28;20527;-41
2023/09/14 01:44:40;;;;;;;4.05;2.40;;;9.40;99.90;;;;;;5027584;28;20045;-42
2023/09/14 01:47:05;;;;;;;5.15;3.42;;;9.40;99.90;;;;;;5042641;28;20051;-42
2023/09/14 01:49:31;;;;;;;7.97;2.28;;;9.40;99.90;;;;;;5027008;28;20474;-42
2023/09/14 01:51:56;;;;;;;4.57;2.20;;;9.30;99.90;;;;;;5045137;28;20500;-41
2023/09/14 01:54:22;;;;;;;5.05;2.05;;;9.30;99.90;;;;;;5027440;28;20065;-42
2023/09/14 01:56:49;;;;;;;2.97;2.05;;;9.30;99.90;;;;;;5045166;28;20044;-43
2023/09/14 01:59:14;;;;;;;3.25;1.85;;;9.30;99.90;;;;;;5044762;28;20098;-42
2023/09/14 02:01:40;;;;;;;4.00;1.88;;;9.30;99.90;;;;;;5044328;28;20045;-42
2023/09/14 02:04:05;;;;;;;3.45;1.90;;;9.30;99.90;;;;;;5044538;28;20488;-41
2023/09/14 02:06:31;;;;;;;4.55;2.08;;;9.20;99.90;;;;;;5025216;28;20119;-42
2023/09/14 02:08:57;;;;;;;2.35;1.63;;;9.20;99.90;;;;;;5026035;28;20115;-43
2023/09/14 02:11:22;;;;;;;2.65;1.60;;;9.20;99.90;;;;;;5044939;28;20060;-42
2023/09/14 02:13:48;;;;;;;4.05;1.60;;;9.20;99.90;;;;;;5045059;28;20083;-43
2023/09/14 02:16:13;;;;;;;4.50;1.67;;;9.20;99.90;;;;;;5043542;28;20687;-42
2023/09/14 02:18:39;;;;;;;1.95;1.38;;;9.30;99.90;;;;;;5035849;28;20087;-42
2023/09/14 02:21:05;;;;;;;2.25;1.48;;;9.30;99.90;;;;;;5044424;28;20072;-43
2023/09/14 02:23:30;;;;;;;3.45;1.67;;;9.30;99.90;;;;;;5010104;28;20049;-41
2023/09/14 02:25:56;;;;;;;3.33;2.08;;;9.20;99.90;;;;;;5026389;28;20471;-41
2023/09/14 02:28:21;;;;;;;4.90;2.35;;;9.20;99.90;;;;;;5043987;28;20037;-42
2023/09/14 02:30:48;;;;;;;5.78;2.65;;;9.20;99.90;;;;;;5025862;28;20622;-43
2023/09/14 02:33:13;;;;;;;4.57;2.95;;;9.30;99.90;;;;;;5026241;28;20579;-43
2023/09/14 02:35:40;;;;;;;5.10;2.40;;;9.30;99.90;;;;;;5044478;28;20124;-41
2023/09/14 02:38:06;;;;;;;7.22;2.33;;;9.30;99.90;;;;;;5044305;28;20207;-42
2023/09/14 02:40:33;;;;;;;8.00;2.60;;;9.30;99.90;;;;;;5024399;28;20103;-43
2023/09/14 02:42:59;;;;;;;5.30;2.60;;;9.20;99.90;;;;;;5044541;28;20544;-42
2023/09/14 02:45:25;;;;;;;5.57;2.30;;;9.20;99.90;;;;;;5009615;28;20508;-42
2023/09/14 02:47:51;;;;;;;3.67;1.80;;;9.20;99.90;;;;;;5025663;28;20223;-42
2023/09/14 02:50:16;;;;;;;5.82;2.30;;;9.20;99.90;;;;;;5043644;28;20048;-42
2023/09/14 02:52:42;;;;;;;6.35;2.38;;;9.10;99.90;;;;;;5044003;28;20124;-45
2023/09/14 02:55:08;;;;;;;5.93;2.40;;;9.10;99.90;;;;;;5026218;28;20321;-42
2023/09/14 02:57:33;;;;;;;4.25;2.28;;;9.00;99.90;;;;;;5044003;28;20045;-42
2023/09/14 02:59:59;;;;;;;4.97;2.75;;;9.00;99.90;;;;;;5025610;28;20335;-43
2023/09/14 03:02:26;;;;;;;5.70;2.85;;;9.00;99.90;;;;;;5044159;28;20109;-42
2023/09/14 03:04:51;;;;;;;5.03;3.05;;;9.00;99.90;;;;;;5025715;28;20693;-42
2023/09/14 03:07:17;;;;;;;7.38;3.10;;;9.00;99.90;;;;;;5025575;28;20036;-43
2023/09/14 03:09:43;;;;;;;5.13;3.60;;;9.00;99.90;;;;;;5042945;28;20503;-43
2023/09/14 03:12:09;;;;;;;6.25;3.50;;;9.00;99.90;;;;;;5043862;28;20056;-41
2023/09/14 03:14:34;;;;;;;5.15;2.95;;;9.00;99.90;;;;;;5025723;28;20044;-42
2023/09/14 03:17:00;;;;;;;5.53;3.42;;;9.00;99.90;;;;;;5025775;28;20610;-42
2023/09/14 03:19:26;;;;;;;7.72;3.50;;;9.10;99.90;;;;;;5043241;28;20041;-43
2023/09/14 03:21:51;;;;;;;4.68;3.22;;;9.10;99.90;;;;;;5025474;28;20499;-42
2023/09/14 03:24:17;;;;;;;5.07;3.38;;;9.10;99.90;;;;;;5043184;28;20044;-43
2023/09/14 03:26:43;;;;;;;8.10;3.67;;;9.20;99.90;;;;;;5008317;28;20094;-42
2023/09/14 03:29:09;;;;;;;6.47;3.75;;;9.20;99.90;;;;;;5024661;28;20045;-41
2023/09/14 03:31:37;;;;;;;6.53;3.30;;;9.20;99.90;;;;;;5043499;28;20049;-41
2023/09/14 03:34:04;;;;;;;3.97;2.60;;;9.20;99.90;;;;;;5043298;28;20560;-41
2023/09/14 03:36:30;;;;;;;4.43;3.35;;;9.20;99.90;;;;;;5042982;28;20594;-42
2023/09/14 03:38:55;;;;;;;5.15;2.70;;;9.20;99.90;;;;;;5041980;28;20052;-41
2023/09/14 03:41:21;;;;;;;4.75;2.60;;;9.20;99.90;;;;;;5024873;28;20075;-43
2023/09/14 03:43:46;;;;;;;3.58;2.33;;;9.10;99.90;;;;;;5042785;28;20412;-42
2023/09/14 03:46:14;;;;;;;3.67;2.40;;;9.10;99.90;;;;;;5042869;28;20045;-41
2023/09/14 03:48:40;;;;;;;4.88;2.72;;;9.10;99.90;;;;;;5041205;28;20296;-43
2023/09/14 03:51:07;;;;;;;9.15;3.05;;;9.10;99.90;;;;;;5024215;28;20210;-45
2023/09/14 03:53:32;;;;;;;5.78;3.30;;;9.00;99.90;;;;;;5042533;28;20107;-42
2023/09/14 03:55:59;;;;;;;4.15;2.60;;;9.00;99.90;;;;;;5024252;28;20143;-42
2023/09/14 03:58:25;;;;;;;6.18;2.90;;;9.00;99.90;;;;;;5041627;28;20574;-43
2023/09/14 04:00:51;;;;;;;7.28;2.85;;;9.00;99.90;;;;;;5042206;28;20124;-43
2023/09/14 04:03:17;;;;;;;5.45;2.70;;;8.90;99.90;;;;;;5019958;28;20041;-42
2023/09/14 04:05:44;;;;;;;3.88;2.05;;;8.90;99.90;;;;;;5023709;28;20053;-42
2023/09/14 04:08:09;;;;;;;4.35;2.38;;;8.90;99.90;;;;;;4991341;28;20167;-42
2023/09/14 04:10:39;;;;;;;6.20;3.08;;;8.80;99.90;;;;;;5041516;28;20385;-41
2023/09/14 04:13:29;;;;;;;7.15;4.72;;;8.80;99.90;;;;;;5042611;28;20056;-44
2023/09/14 04:16:00;;;;;;;7.80;4.13;;;8.90;99.90;;;;;;5042220;28;20040;-42
2023/09/14 04:18:27;;;;;;;5.28;3.80;;;8.80;99.90;;;;;;5041396;28;20161;-42
2023/09/14 04:20:54;;;;;;;5.18;3.08;;;8.80;99.90;;;;;;5042390;28;20041;-43
2023/09/14 04:23:20;;;;;;;5.80;3.72;;;8.80;99.90;;;;;;5042730;28;20041;-45
2023/09/14 04:25:47;;;;;;;6.40;4.45;;;8.80;99.90;;;;;;5042004;28;20253;-42
2023/09/14 04:28:18;;;;;;;16.48;5.30;;;8.80;99.90;;;;;;5023902;28;20421;-42
2023/09/14 04:30:52;;;;;;;8.02;5.18;;;8.90;99.90;;;;;;5024011;28;20292;-43
2023/09/14 04:33:18;;;;;;;7.43;5.63;;;8.80;99.90;;;;;;5024282;28;20055;-44
2023/09/14 04:35:44;;;;;;;7.05;5.25;;;8.80;99.90;;;;;;5041570;28;20036;-46
2023/09/14 04:38:10;;;;;;;9.45;5.57;;;8.80;99.90;;;;;;5041868;28;20029;-41
2023/09/14 04:40:43;;;;;;;8.13;5.97;;;8.80;99.90;;;;;;5023157;28;20067;-43
2023/09/14 04:43:10;;;;;;;8.98;5.45;;;8.90;99.90;;;;;;5042322;28;20051;-43
2023/09/14 04:45:35;;;;;;;8.15;5.60;;;8.90;99.90;;;;;;5041696;28;20040;-42
2023/09/14 04:48:01;;;;;;;7.25;4.93;;;8.90;99.90;;;;;;5039969;28;20037;-44
2023/09/14 04:50:28;;;;;;;8.38;5.85;;;8.90;99.90;;;;;;5041047;28;20049;-44
2023/09/14 04:52:54;;;;;;;6.10;5.47;;;8.90;99.90;;;;;;5041450;28;20480;-44
2023/09/14 04:55:19;;;;;;;9.13;6.13;;;9.00;99.90;;;;;;5041628;28;20037;-45
2023/09/14 04:57:45;;;;;;;8.35;5.25;;;9.00;99.90;;;;;;5040871;28;20466;-44
2023/09/14 05:00:12;;;;;;;6.55;5.00;;;9.00;99.90;;;;;;5023275;28;20143;-43
2023/09/14 05:02:38;;;;;;;9.32;5.60;;;9.00;99.90;;;;;;5041312;28;20106;-43
2023/09/14 05:05:06;;;;;;;8.50;5.68;;;8.90;99.90;;;;;;5023268;28;20048;-42
2023/09/14 05:07:32;;;;;;;8.77;5.00;;;8.90;99.90;;;;;;5040914;28;20123;-42
2023/09/14 05:09:57;;;;;;;9.05;5.25;;;8.90;99.90;;;;;;5005984;28;20052;-44
2023/09/14 05:12:23;;;;;;;5.53;5.00;;;8.90;99.90;;;;;;5041206;28;20103;-44
2023/09/14 05:14:49;;;;;;;6.35;4.72;;;8.90;99.90;;;;;;5023447;28;20158;-43
2023/09/14 05:17:14;;;;;;;8.63;5.05;;;8.90;99.90;;;;;;5022996;28;20523;-45
2023/09/14 05:19:42;;;;;;;6.28;4.68;;;9.00;99.90;;;;;;5041288;28;20036;-43
2023/09/14 05:22:08;;;;;;;6.25;4.57;;;9.00;99.90;;;;;;5023291;28;20376;-43
2023/09/14 05:24:33;;;;;;;7.03;4.25;;;9.00;99.90;;;;;;5041400;28;20394;-44
2023/09/14 05:27:00;;;;;;;7.32;4.03;;;9.10;99.90;;;;;;5022769;28;20052;-45
2023/09/14 05:29:26;;;;;;;7.20;4.28;;;9.10;99.90;;;;;;5040851;28;20377;-43
2023/09/14 05:31:52;;;;;;;8.75;4.10;;;9.20;99.90;;;;;;5041176;28;20044;-43
2023/09/14 05:34:17;;;;;;;5.35;3.58;;;9.30;99.90;;;;;;5006876;28;20127;-45
2023/09/14 05:36:43;;;;;;;6.18;4.30;;;9.40;99.90;;;;;;5022561;28;20119;-44
2023/09/14 05:39:09;;;;;;;6.13;4.15;;;9.50;99.90;;;;;;5006585;28;20088;-45
2023/09/14 05:41:35;;;;;;;3.92;3.33;;;9.60;99.90;;;;;;5040814;28;20344;-43
2023/09/14 05:44:03;;;;;;;5.47;3.30;;;9.60;99.90;;;;;;5023480;28;20314;-43
2023/09/14 05:46:29;;;;;;;4.85;3.25;;;9.70;99.90;;;;;;5039449;28;20029;-42
2023/09/14 05:48:54;;;;;;;5.65;3.78;;;9.90;99.90;;;;;;5023009;28;20514;-42
2023/09/14 05:51:20;;;;;;;8.40;3.60;;;10.00;99.90;;;;;;5040962;28;20119;-43
2023/09/14 05:53:46;;;;;;;5.95;3.45;;;10.10;99.90;;;;;;5041337;28;20041;-44
2023/09/14 05:56:12;;;;;;;6.13;2.75;;;10.40;99.90;;;;;;5006994;28;20068;-43
2023/09/14 05:58:37;;;;;;;7.18;3.10;;;10.90;99.90;;;;;;5022536;28;20116;-43
2023/09/14 06:01:04;;;;;;;5.38;2.63;;;11.50;99.90;;;;;;5040925;28;20385;-45
2023/09/14 06:03:30;;;;;;;4.78;2.75;;;12.00;99.90;;;;;;5022948;28;20056;-44
2023/09/14 06:05:56;;;;;;;7.10;2.97;;;12.60;99.90;;;;;;5041449;28;20052;-42
2023/09/14 06:08:21;;;;;;;5.30;2.15;;;13.20;99.90;;;;;;5040025;28;20053;-43
2023/09/14 06:10:47;;;;;;;5.47;3.30;;;13.60;99.90;;;;;;5040447;28;20053;-43
2023/09/14 06:13:12;;;;;;;4.47;3.03;;;13.80;99.90;;;;;;5040814;28;20037;-43
2023/09/14 06:15:38;;;;;;;5.45;2.88;;;14.00;99.90;;;;;;5010032;28;20605;-43
2023/09/14 06:18:04;;;;;;;4.97;2.55;;;14.30;99.90;;;;;;5025651;28;20045;-43
2023/09/14 06:20:30;;;;;;;4.95;2.60;;;14.50;99.90;;;;;;5044488;28;20337;-44
2023/09/14 06:22:55;;;;;;;6.10;2.65;;;14.70;99.90;;;;;;5026150;28;20422;-43
2023/09/14 06:25:21;;;;;;;6.65;2.90;;;14.90;99.90;;;;;;5044127;28;20096;-44
2023/09/14 06:27:46;;;;;;;7.28;3.00;;;15.00;99.90;;;;;;5025461;28;20037;-44
2023/09/14 06:30:12;;;;;;;7.75;3.22;;;15.30;99.90;;;;;;5043708;28;20076;-45
2023/09/14 06:32:38;;;;;;;3.75;2.88;;;15.60;99.90;;;;;;5044782;28;20469;-43
2023/09/14 06:35:04;;;;;;;8.65;3.45;;;15.70;99.90;;;;;;5044031;28;20033;-44
2023/09/14 06:37:30;;;;;;;5.85;3.20;;;16.00;99.90;;;;;;5043642;28;20041;-43
2023/09/14 06:39:56;;;;;;;5.70;2.92;;;16.20;99.90;;;;;;5043442;28;20075;-43
2023/09/14 06:42:22;;;;;;;6.53;3.03;;;16.50;99.90;;;;;;5009784;28;20049;-45
2023/09/14 06:44:47;;;;;;;6.05;2.45;;;16.90;99.90;;;;;;5025754;28;20458;-44
2023/09/14 06:47:13;;;;;;;6.35;2.30;;;17.30;99.90;;;;;;5024965;28;20049;-44
2023/09/14 06:49:38;;;;;;;4.20;2.67;;;17.50;99.90;;;;;;5043522;28;20060;-45
2023/09/14 06:52:04;;;;;;;8.25;3.10;;;17.40;99.90;;;;;;5044216;28;20119;-43
2023/09/14 06:54:30;;;;;;;5.45;3.03;;;17.30;99.90;;;;;;5044109;28;20044;-43
2023/09/14 06:56:55;;;;;;;7.25;3.10;;;17.30;99.90;;;;;;5025342;28;20496;-44
2023/09/14 06:59:21;;;;;;;6.82;3.58;;;17.00;99.90;;;;;;5025098;28;20051;-44
2023/09/14 07:01:47;;;;;;;7.53;3.42;;;16.70;99.90;;;;;;5043964;28;20072;-43
2023/09/14 07:04:12;;;;;;;5.88;3.30;;;16.60;99.90;;;;;;5044000;28;20037;-44
2023/09/14 07:06:38;;;;;;;7.82;2.67;;;16.70;99.90;;;;;;5025036;28;20822;-43
2023/09/14 07:09:06;;;;;;;5.85;3.05;;;16.70;99.90;;;;;;5043084;28;20144;-43
2023/09/14 07:11:32;;;;;;;4.97;3.10;;;16.60;99.90;;;;;;5025239;28;20097;-44
2023/09/14 07:13:58;;;;;;;6.40;2.88;;;16.50;99.90;;;;;;5043313;28;20037;-46
2023/09/14 07:16:24;;;;;;;8.98;3.63;;;16.60;99.90;;;;;;5042890;28;20089;-43
2023/09/14 07:18:49;;;;;;;7.60;2.78;;;16.60;99.90;;;;;;5041914;28;20052;-44
2023/09/14 07:21:15;;;;;;;5.88;2.75;;;16.60;99.90;;;;;;5042893;28;20060;-43
2023/09/14 07:23:41;;;;;;;5.93;2.58;;;16.60;99.90;;;;;;5008555;28;20656;-43
2023/09/14 07:26:07;;;;;;;9.43;3.08;;;16.50;99.90;;;;;;5042143;28;20091;-43
2023/09/14 07:28:33;;;;;;;6.90;2.63;;;16.60;99.90;;;;;;5041736;28;20548;-44
2023/09/14 07:31:03;;;;;;;9.13;3.03;;;16.60;99.90;;;;;;5009085;28;20040;-44
2023/09/14 07:33:29;;;;;;;7.05;3.15;;;16.60;99.90;;;;;;5025620;28;20407;-44
2023/09/14 07:35:55;;;;;;;7.85;2.63;;;16.70;99.90;;;;;;5031144;28;20041;-44
2023/09/14 07:38:21;;;;;;;11.95;2.92;;;16.70;99.90;;;;;;5025015;28;20120;-44
2023/09/14 07:40:48;;;;;;;5.53;2.30;;;16.70;99.90;;;;;;5025904;28;20123;-43
2023/09/14 07:43:14;;;;;;;7.78;2.47;;;16.80;99.90;;;;;;5043808;28;20070;-45
2023/09/14 07:45:39;;;;;;;8.00;2.47;;;16.80;99.90;;;;;;5025587;28;20468;-43
2023/09/14 07:48:07;;;;;;;6.47;2.53;;;16.90;99.90;;;;;;5041153;28;20047;-45
2023/09/14 07:50:39;;;;;;;8.07;2.83;;;17.20;99.90;;;;;;5043342;28;20043;-43
2023/09/14 07:53:08;;;;;;;7.60;2.53;;;17.30;99.90;;;;;;5043259;28;20447;-43
2023/09/14 07:55:34;;;;;;;8.55;2.85;;;17.50;99.90;;;;;;5024194;28;20052;-45
2023/09/14 07:58:00;;;;;;;12.57;3.28;;;17.60;99.90;;;;;;5041851;28;20064;-43
2023/09/14 08:00:26;;;;;;;6.63;2.65;;;17.60;99.90;;;;;;5008172;28;20048;-43
2023/09/14 08:02:52;;;;;;;6.22;2.67;;;17.70;99.90;;;;;;5042656;28;20044;-44
2023/09/14 08:05:18;;;;;;;9.15;2.70;;;17.70;99.90;;;;;;5041291;28;20106;-44
2023/09/14 08:07:43;;;;;;;12.05;2.80;;;17.80;99.90;;;;;;5007725;28;20041;-43
2023/09/14 08:10:09;;;;;;;7.43;2.58;;;17.90;99.90;;;;;;5023629;28;20071;-44
2023/09/14 08:12:38;;;;;;;7.40;2.95;;;18.00;99.90;;;;;;5041422;28;20052;-44
2023/09/14 08:15:04;;;;;;;8.15;3.13;;;18.20;99.90;;;;;;5023739;28;20566;-43
2023/09/14 08:17:30;;;;;;;6.95;2.40;;;18.20;99.90;;;;;;5038865;28;20051;-44
2023/09/14 08:19:56;;;;;;;8.68;2.63;;;18.30;99.90;;;;;;5041963;28;20041;-47
2023/09/14 08:22:23;;;;;;;7.13;2.70;;;18.30;99.90;;;;;;5008204;28;20407;-45
2023/09/14 08:24:52;;;;;;;5.68;2.72;;;18.40;99.90;;;;;;5042651;28;20055;-45
2023/09/14 08:27:18;;;;;;;9.50;3.85;;;18.40;99.90;;;;;;5023398;28;20171;-43
2023/09/14 08:29:44;;;;;;;5.47;2.63;;;18.40;99.90;;;;;;5034596;28;20100;-43
2023/09/14 08:32:13;;;;;;;12.48;4.00;;;18.40;99.90;;;;;;5042372;28;20048;-43
2023/09/14 08:34:39;;;;;;;13.52;3.28;;;18.60;99.90;;;;;;5042817;28;20040;-45
2023/09/14 08:37:08;;;;;;;8.48;2.83;;;18.60;99.90;;;;;;5022451;28;20512;-44
2023/09/14 08:39:34;;;;;;;8.48;2.35;;;18.70;99.90;;;;;;5022882;28;20122;-45
2023/09/14 08:42:00;;;;;;;7.25;2.85;;;18.80;99.90;;;;;;5041744;28;20041;-43
2023/09/14 08:44:26;;;;;;;6.32;2.50;;;18.80;99.90;;;;;;5042239;28;20719;-44
2023/09/14 08:46:55;;;;;;;6.22;2.53;;;18.90;99.90;;;;;;5023048;28;20041;-45
2023/09/14 08:49:22;;;;;;;10.73;3.38;;;18.80;99.90;;;;;;5041190;28;20056;-45
2023/09/14 08:51:50;;;;;;;10.50;3.15;;;18.80;99.90;;;;;;5023002;28;20041;-43
2023/09/14 08:54:17;;;;;;;10.02;2.53;;;18.90;99.90;;;;;;5020658;28;20044;-44
2023/09/14 08:56:43;;;;;;;8.35;2.90;;;19.00;99.90;;;;;;5041137;28;20040;-44
2023/09/14 08:59:11;;;;;;;10.15;3.05;;;19.00;99.90;;;;;;5023124;28;20048;-45
2023/09/14 09:01:37;;;;;;;10.77;3.13;;;19.10;99.90;;;;;;5041839;28;20049;-43
2023/09/14 09:04:03;;;;;;;9.73;2.95;;;19.20;99.90;;;;;;5023622;28;20050;-43
2023/09/14 09:06:29;;;;;;;8.48;2.83;;;19.10;99.90;;;;;;5041519;28;20239;-43
2023/09/14 09:08:58;;;;;;;9.50;3.03;;;19.20;99.90;;;;;;5041763;28;20061;-44
2023/09/14 09:11:24;;;;;;;11.25;3.85;;;19.20;99.90;;;;;;5041928;28;20041;-44
2023/09/14 09:13:50;;;;;;;8.57;2.88;;;19.30;99.90;;;;;;5041521;28;20464;-43
2023/09/14 09:16:15;;;;;;;9.27;2.42;;;19.40;99.90;;;;;;5039563;28;20040;-44
2023/09/14 09:19:03;;;;;;;9.57;3.50;;;19.40;99.90;;;;;;5015828;28;20175;-45
2023/09/14 09:21:31;;;;;;;10.18;2.75;;;19.30;99.90;;;;;;5038917;28;20601;-44
2023/09/14 09:23:57;;;;;;;9.70;3.15;;;19.30;99.90;;;;;;5041231;28;20116;-45
2023/09/14 09:26:26;;;;;;;12.50;3.42;;;19.40;99.90;;;;;;5022828;28;20048;-44
2023/09/14 09:28:51;;;;;;;8.15;2.95;;;19.40;99.90;;;;;;5022920;28;20086;-43
2023/09/14 09:31:17;;;;;;;9.43;2.95;;;19.60;99.90;;;;;;5040994;28;20029;-44
2023/09/14 09:33:47;;;;;;;14.10;3.63;;;19.70;99.90;;;;;;5022739;28;20091;-44
2023/09/14 09:36:14;;;;;;;8.75;2.92;;;19.80;99.90;;;;;;5022641;28;20558;-45
2023/09/14 09:38:40;;;;;;;11.00;3.28;;;19.90;99.90;;;;;;5022633;28;20110;-44
2023/09/14 09:41:10;;;;;;;8.73;2.90;;;19.90;99.90;;;;;;5023171;28;20045;-44
2023/09/14 09:43:37;;;;;;;11.93;2.95;;;19.80;99.90;;;;;;5022667;28;20081;-46
2023/09/14 09:46:02;;;;;;;6.97;2.72;;;19.90;99.90;;;;;;5006942;28;20599;-46
2023/09/14 09:48:28;;;;;;;7.43;2.80;;;20.00;99.90;;;;;;5021923;28;20045;-44
2023/09/14 09:50:55;;;;;;;10.48;2.90;;;20.00;99.90;;;;;;5044664;28;20039;-44
2023/09/14 09:53:21;;;;;;;8.35;3.08;;;20.10;99.90;;;;;;5026206;28;20140;-45
2023/09/14 09:55:47;;;;;;;8.88;2.88;;;20.10;99.90;;;;;;5045056;28;20067;-44
2023/09/14 09:58:16;;;;;;;6.75;2.65;;;20.20;99.90;;;;;;5043448;28;20219;-46
2023/09/14 10:00:43;;;;;;;7.70;2.90;;;20.10;99.90;;;;;;5042297;28;20036;-45
2023/09/14 10:03:08;;;;;;;10.32;3.22;;;20.20;99.90;;;;;;5044326;28;20087;-45
2023/09/14 10:05:39;;;;;;;8.40;3.25;;;20.30;99.90;;;;;;5009878;28;20041;-45
2023/09/14 10:08:12;;;;;;;10.65;3.25;;;20.40;99.90;;;;;;5025492;28;20041;-45
2023/09/14 10:10:37;;;;;;;7.93;2.65;;;20.50;99.90;;;;;;5026690;28;20049;-45
2023/09/14 10:13:05;;;;;;;9.02;3.30;;;20.60;99.90;;;;;;5044654;28;20462;-46
2023/09/14 10:15:34;;;;;;;9.25;3.28;;;20.70;99.90;;;;;;5044639;28;20049;-44
2023/09/14 10:18:02;;;;;;;12.38;3.13;;;20.90;99.90;;;;;;5025255;28;20302;-46
2023/09/14 10:20:29;;;;;;;12.93;3.95;;;21.10;99.90;;;;;;5043780;28;20057;-47
2023/09/14 10:22:59;;;;;;;8.35;3.35;;;21.00;99.90;;;;;;5031465;28;20087;-44
2023/09/14 10:25:25;;;;;;;10.38;3.90;;;20.90;99.90;;;;;;5025124;28;20049;-45
2023/09/14 10:27:50;;;;;;;11.45;2.95;;;21.00;99.90;;;;;;5025481;28;20040;-45
2023/09/14 10:30:18;;;;;;;7.68;3.13;;;21.10;99.90;;;;;;5043467;28;20128;-45
2023/09/14 10:32:48;;;;;;;7.70;3.10;;;21.10;99.90;;;;;;5040622;28;20533;-45
2023/09/14 10:35:13;;;;;;;8.32;3.45;;;20.80;99.90;;;;;;5043805;28;20041;-46
2023/09/14 10:37:44;;;;;;;10.57;3.40;;;20.60;99.90;;;;;;5024495;28;20134;-45
2023/09/14 10:40:13;;;;;;;10.43;3.15;;;20.40;99.90;;;;;;5044024;28;20110;-47
2023/09/14 10:42:40;;;;;;;8.02;2.78;;;20.70;99.90;;;;;;5043866;28;20076;-46
2023/09/14 10:45:07;;;;;;;13.15;3.38;;;20.80;99.90;;;;;;5026433;28;20538;-45
2023/09/14 10:47:37;;;;;;;7.53;2.95;;;20.70;99.90;;;;;;5043662;28;20154;-45
2023/09/14 10:50:06;;;;;;;9.35;2.60;;;20.80;99.90;;;;;;5043632;28;20406;-45
2023/09/14 10:52:33;;;;;;;6.97;3.05;;;20.80;99.90;;;;;;5043287;28;20041;-49
2023/09/14 10:54:59;;;;;;;8.82;3.13;;;20.30;99.90;;;;;;5025297;28;20044;-45
2023/09/14 10:57:28;;;;;;;8.65;3.25;;;20.30;99.90;;;;;;5043232;28;20615;-45
2023/09/14 10:59:57;;;;;;;10.05;2.85;;;20.20;99.90;;;;;;5042129;28;20484;-47
2023/09/14 11:02:45;;;;;;;7.35;3.20;;;20.30;99.90;;;;;;5024921;28;20045;-43
2023/09/14 11:05:25;;;;;;;10.80;2.90;;;20.30;99.90;;;;;;5042723;28;20049;-45
2023/09/14 11:07:59;;;;;;;7.20;3.15;;;20.30;99.90;;;;;;5025572;28;20049;-48
2023/09/14 11:10:26;;;;;;;8.20;3.10;;;20.40;99.90;;;;;;5043547;28;20433;-46
2023/09/14 11:12:52;;;;;;;13.85;4.50;;;20.40;99.90;;;;;;5043383;28;20102;-44
2023/09/14 11:15:21;;;;;;;8.57;3.30;;;20.40;99.90;;;;;;5043887;28;20044;-47
2023/09/14 11:17:51;;;;;;;8.32;3.67;;;20.40;99.90;;;;;;5042563;28;20049;-48
2023/09/14 11:20:20;;;;;;;6.40;3.08;;;20.30;99.90;;;;;;4990385;28;20480;-45
2023/09/14 11:22:50;;;;;;;8.20;3.42;;;20.30;99.90;;;;;;5024417;28;20084;-45
2023/09/14 11:25:33;;;;;;;8.70;3.05;;;20.40;99.90;;;;;;5008807;28;20444;-44
2023/09/14 11:27:59;;;;;;;8.23;2.83;;;20.30;99.90;;;;;;5010392;28;20045;-47
2023/09/14 11:30:26;;;;;;;5.75;3.70;;;20.30;99.90;;;;;;5035848;28;20055;-46
2023/09/14 11:32:53;;;;;;;7.88;3.42;;;20.30;99.90;;;;;;5053516;28;20483;-46
2023/09/14 11:35:36;;;;;;;10.48;3.70;;;20.20;99.90;;;;;;5051738;28;20062;-46
2023/09/14 11:38:04;;;;;;;8.32;3.70;;;20.30;99.90;;;;;;5050220;28;20738;-44
2023/09/14 11:40:33;;;;;;;6.28;3.47;;;20.30;98.90;;;;;;5030462;28;20071;-44
2023/09/14 11:43:20;;;;;;;8.20;3.92;;;20.30;99.50;;;;;;5042499;28;20434;-45
2023/09/14 11:45:46;;;;;;;10.60;3.63;;;20.30;99.80;;;;;;5008503;28;20056;-46
2023/09/14 11:48:13;;;;;;;6.45;2.92;;;20.30;99.90;;;;;;5041372;28;20053;-43
2023/09/14 11:50:43;;;;;;;7.38;3.40;;;20.30;99.90;;;;;;5024271;28;20340;-44
2023/09/14 11:53:12;;;;;;;7.93;3.65;;;20.20;99.90;;;;;;5042530;28;20059;-45
2023/09/14 11:55:39;;;;;;;9.75;3.30;;;20.30;99.90;;;;;;5024497;28;20049;-45
2023/09/14 11:58:05;;;;;;;8.57;3.20;;;20.20;99.90;;;;;;5041439;28;20065;-45
2023/09/14 12:00:52;;;;;;;8.80;2.88;;;20.30;99.90;;;;;;5042362;28;20135;-45
2023/09/14 12:03:18;;;;;;;7.55;2.80;;;20.40;98.70;;;;;;5038910;28;20103;-43
2023/09/14 12:05:44;;;;;;;11.13;3.83;;;20.40;99.40;;;;;;5036838;28;20136;-45
2023/09/14 12:08:17;;;;;;;8.57;3.40;;;20.30;99.90;;;;;;5036711;28;20508;-43
2023/09/14 12:10:44;;;;;;;7.03;3.70;;;20.30;99.80;;;;;;5039864;28;20496;-44
2023/09/14 12:13:12;;;;;;;8.00;3.50;;;20.20;99.90;;;;;;5039438;28;20611;-44
2023/09/14 12:15:38;;;;;;;10.43;4.15;;;20.20;99.90;;;;;;5040565;28;20511;-43
2023/09/14 12:18:04;;;;;;;9.00;3.38;;;20.50;99.90;;;;;;5038622;28;20037;-45
2023/09/14 12:20:33;;;;;;;8.35;4.15;;;20.50;99.60;;;;;;5041590;28;20041;-45
2023/09/14 12:23:00;;;;;;;9.18;3.67;;;20.50;99.90;;;;;;5013519;28;20586;-45
2023/09/14 12:25:26;;;;;;;9.50;3.88;;;20.50;99.90;;;;;;5023896;28;20056;-45
2023/09/14 12:27:51;;;;;;;7.43;3.20;;;20.50;99.90;;;;;;5023032;28;20511;-43
2023/09/14 12:30:17;;;;;;;5.05;2.97;;;20.60;99.90;;;;;;5022930;28;20045;-44
2023/09/14 12:32:43;;;;;;;10.85;3.63;;;20.70;99.90;;;;;;5041523;28;20104;-46
2023/09/14 12:35:10;;;;;;;9.30;3.88;;;20.50;99.30;;;;;;5041103;28;20041;-43
2023/09/14 12:37:36;;;;;;;7.78;3.90;;;20.50;99.00;;;;;;5040539;28;20037;-45
2023/09/14 12:40:10;;;;;;;6.18;3.28;;;20.70;99.90;;;;;;5023734;28;20492;-48
2023/09/14 12:42:36;;;;;;;6.78;3.25;;;20.70;99.90;;;;;;5022744;28;20049;-45
2023/09/14 12:45:07;;;;;;;8.02;3.35;;;20.70;99.50;;;;;;5022885;28;20485;-45
2023/09/14 12:47:33;;;;;;;8.40;3.53;;;20.80;99.30;;;;;;5020521;28;20056;-44
2023/09/14 12:49:59;;;;;;;8.57;3.42;;;20.80;99.20;;;;;;5022940;28;20045;-46